createdAt,value
2023-02-18T00:01:11.909Z,100.00
2023-02-18T00:03:42.204Z,100.00
2023-02-18T00:06:16.871Z,100.00
2023-02-18T00:08:47.216Z,100.00
2023-02-18T00:11:17.822Z,100.00
2023-02-18T00:13:54.649Z,100.00
2023-02-18T00:16:24.978Z,100.00
2023-02-18T00:18:57.501Z,100.00
2023-02-18T00:21:27.138Z,100.00
2023-02-18T00:23:57.106Z,100.00
2023-02-18T00:26:26.726Z,100.00
2023-02-18T00:28:57.253Z,100.00
2023-02-18T00:31:29.834Z,100.00
2023-02-18T00:34:01.630Z,100.00
2023-02-18T00:36:31.220Z,100.00
2023-02-18T00:39:04.029Z,100.00
2023-02-18T00:41:34.331Z,100.00
2023-02-18T00:44:05.621Z,100.00
2023-02-18T00:46:37.055Z,100.00
2023-02-18T00:49:07.452Z,100.00
2023-02-18T00:51:38.326Z,100.00
2023-02-18T00:54:07.580Z,100.00
2023-02-18T00:56:37.150Z,100.00
2023-02-18T00:59:07.921Z,100.00
2023-02-18T01:01:37.123Z,100.00
2023-02-18T01:04:06.689Z,100.00
2023-02-18T01:06:36.030Z,100.00
2023-02-18T01:09:05.823Z,100.00
2023-02-18T01:11:35.143Z,100.00
2023-02-18T01:14:04.555Z,100.00
2023-02-18T01:16:35.073Z,100.00
2023-02-18T01:19:04.381Z,100.00
2023-02-18T01:21:33.524Z,100.00
2023-02-18T01:24:02.934Z,100.00
2023-02-18T01:26:32.127Z,100.00
2023-02-18T01:29:01.197Z,100.00
2023-02-18T01:31:30.474Z,100.00
2023-02-18T01:34:02.684Z,100.00
2023-02-18T01:36:31.792Z,100.00
2023-02-18T01:39:00.850Z,100.00
2023-02-18T01:41:30.182Z,100.00
2023-02-18T01:44:17.227Z,100.00
2023-02-18T01:46:49.250Z,100.00
2023-02-18T01:49:25.412Z,100.00
2023-02-18T01:52:01.276Z,100.00
2023-02-18T01:54:36.725Z,100.00
2023-02-18T01:57:08.765Z,100.00
2023-02-18T01:59:42.810Z,100.00
2023-02-18T02:02:16.574Z,100.00
2023-02-18T02:04:47.834Z,100.00
2023-02-18T02:07:19.301Z,100.00
2023-02-18T02:09:51.372Z,100.00
2023-02-18T02:12:41.611Z,100.00
2023-02-18T02:15:30.593Z,100.00
2023-02-18T02:18:23.479Z,100.00
2023-02-18T02:21:41.573Z,100.00
2023-02-18T02:24:37.691Z,100.00
2023-02-18T02:27:27.444Z,100.00
2023-02-18T02:30:49.960Z,100.00
2023-02-18T02:34:06.642Z,100.00
2023-02-18T02:36:47.044Z,100.00
2023-02-18T02:39:24.516Z,100.00
2023-02-18T02:42:07.970Z,100.00
2023-02-18T02:44:45.912Z,100.00
2023-02-18T02:47:39.427Z,100.00
2023-02-18T02:50:15.020Z,100.00
2023-02-18T02:52:51.597Z,100.00
2023-02-18T02:55:22.791Z,100.00
2023-02-18T02:57:57.119Z,100.00
2023-02-18T03:00:48.718Z,100.00
2023-02-18T03:03:40.211Z,100.00
2023-02-18T03:06:37.028Z,100.00
2023-02-18T03:09:15.249Z,100.00
2023-02-18T03:11:52.845Z,100.00
2023-02-18T03:14:31.256Z,100.00
2023-02-18T03:17:05.008Z,100.00
2023-02-18T03:19:39.049Z,100.00
2023-02-18T03:22:14.698Z,100.00
2023-02-18T03:24:48.171Z,100.00
2023-02-18T03:27:22.836Z,100.00
2023-02-18T03:29:59.128Z,100.00
2023-02-18T03:32:30.592Z,100.00
2023-02-18T03:35:09.012Z,100.00
2023-02-18T03:37:43.367Z,100.00
2023-02-18T03:40:15.127Z,100.00
2023-02-18T03:42:44.209Z,100.00
2023-02-18T03:45:13.824Z,100.00
2023-02-18T03:47:43.998Z,100.00
2023-02-18T03:50:13.102Z,100.00
2023-02-18T03:52:42.164Z,100.00
2023-02-18T03:55:13.143Z,100.00
2023-02-18T03:57:42.295Z,100.00
2023-02-18T04:00:12.699Z,100.00
2023-02-18T04:02:44.737Z,100.00
2023-02-18T04:05:14.308Z,100.00
2023-02-18T04:07:43.440Z,100.00
2023-02-18T04:10:14.193Z,100.00
2023-02-18T04:12:43.309Z,100.00
2023-02-18T04:15:13.890Z,100.00
2023-02-18T04:17:43.041Z,100.00
2023-02-18T04:20:13.391Z,100.00
2023-02-18T04:22:42.517Z,100.00
2023-02-18T04:25:13.068Z,100.00
2023-02-18T04:27:42.209Z,100.00
2023-02-18T04:30:12.481Z,100.00
2023-02-18T04:32:41.927Z,100.00
2023-02-18T04:35:11.002Z,100.00
2023-02-18T04:37:40.058Z,100.00
2023-02-18T04:40:10.830Z,100.00
2023-02-18T04:42:41.364Z,100.00
2023-02-18T04:45:11.012Z,100.00
2023-02-18T04:47:40.203Z,100.00
2023-02-18T04:50:10.980Z,100.00
2023-02-18T04:52:40.069Z,100.00
2023-02-18T04:55:09.697Z,100.00
2023-02-18T04:57:40.206Z,100.00
2023-02-18T05:00:14.513Z,100.00
2023-02-18T05:02:43.794Z,100.00
2023-02-18T05:05:13.739Z,100.00
2023-02-18T05:07:43.491Z,100.00
2023-02-18T05:10:16.333Z,100.00
2023-02-18T05:12:46.840Z,100.00
2023-02-18T05:15:15.903Z,100.00
2023-02-18T05:17:45.029Z,100.00
2023-02-18T05:20:14.927Z,100.00
2023-02-18T05:22:44.257Z,100.00
2023-02-18T05:25:13.411Z,100.00
2023-02-18T05:27:42.629Z,100.00
2023-02-18T05:30:14.064Z,100.00
2023-02-18T05:32:43.323Z,100.00
2023-02-18T05:35:13.641Z,100.00
2023-02-18T05:37:42.942Z,100.00
2023-02-18T05:40:13.306Z,100.00
2023-02-18T05:42:42.385Z,100.00
2023-02-18T05:45:12.986Z,100.00
2023-02-18T05:47:42.085Z,100.00
2023-02-18T05:50:11.860Z,100.00
2023-02-18T05:52:40.989Z,100.00
2023-02-18T05:55:10.159Z,100.00
2023-02-18T05:57:39.301Z,100.00
2023-02-18T06:00:10.473Z,100.00
2023-02-18T06:02:41.165Z,100.00
2023-02-18T06:05:11.356Z,100.00
2023-02-18T06:07:40.916Z,100.00
2023-02-18T06:10:12.402Z,100.00
2023-02-18T06:12:42.256Z,100.00
2023-02-18T06:15:12.474Z,100.00
2023-02-18T06:17:43.565Z,100.00
2023-02-18T06:20:14.429Z,100.00
2023-02-18T06:22:44.351Z,100.00
2023-02-18T06:25:14.254Z,100.00
2023-02-18T06:27:46.821Z,100.00
2023-02-18T06:30:17.406Z,100.00
2023-02-18T06:32:48.856Z,100.00
2023-02-18T06:35:18.958Z,100.00
2023-02-18T06:37:49.145Z,100.00
2023-02-18T06:40:19.891Z,100.00
2023-02-18T06:42:54.065Z,100.00
2023-02-18T06:45:24.056Z,100.00
2023-02-18T06:47:55.477Z,100.00
2023-02-18T06:50:25.187Z,100.00
2023-02-18T06:52:55.278Z,100.00
2023-02-18T06:55:25.116Z,100.00
2023-02-18T06:57:55.059Z,100.00
2023-02-18T07:00:24.963Z,100.00
2023-02-18T07:02:56.554Z,100.00
2023-02-18T07:05:26.406Z,100.00
2023-02-18T07:07:56.382Z,100.00
2023-02-18T07:10:26.933Z,100.00
2023-02-18T07:12:56.647Z,100.00
2023-02-18T07:15:28.189Z,100.00
2023-02-18T07:18:00.551Z,100.00
2023-02-18T07:20:30.549Z,100.00
2023-02-18T07:23:00.545Z,100.00
2023-02-18T07:25:30.473Z,100.00
2023-02-18T07:28:00.536Z,100.00
2023-02-18T07:30:32.752Z,100.00
2023-02-18T07:33:04.598Z,100.00
2023-02-18T07:35:34.672Z,100.00
2023-02-18T07:38:04.850Z,100.00
2023-02-18T07:40:36.019Z,100.00
2023-02-18T07:43:05.803Z,100.00
2023-02-18T07:45:38.408Z,100.00
2023-02-18T07:48:10.051Z,100.00
2023-02-18T07:50:42.012Z,100.00
2023-02-18T07:53:14.362Z,100.00
2023-02-18T07:55:51.010Z,100.00
2023-02-18T07:58:22.888Z,100.00
2023-02-18T08:01:06.289Z,100.00
2023-02-18T08:03:37.814Z,100.00
2023-02-18T08:46:08.935Z,100.00
2023-02-18T08:48:45.064Z,100.00
2023-02-18T08:51:17.315Z,100.00
2023-02-18T08:53:47.286Z,100.00
2023-02-18T08:56:17.256Z,100.00
2023-02-18T08:58:46.491Z,100.00
2023-02-18T09:01:16.914Z,100.00
2023-02-18T09:03:46.101Z,100.00
2023-02-18T09:06:15.122Z,100.00
2023-02-18T09:08:44.170Z,100.00
2023-02-18T09:11:13.551Z,100.00
2023-02-18T09:13:42.893Z,100.00
2023-02-18T09:16:15.209Z,100.00
2023-02-18T09:18:46.385Z,100.00
2023-02-18T09:21:20.748Z,100.00
2023-02-18T09:23:52.028Z,100.00
2023-02-18T09:26:25.027Z,100.00
2023-02-18T09:28:57.159Z,100.00
2023-02-18T09:31:28.208Z,100.00
2023-02-18T09:34:01.928Z,100.00
2023-02-18T09:36:31.705Z,100.00
2023-02-18T09:39:01.683Z,100.00
2023-02-18T09:41:39.645Z,100.00
2023-02-18T09:44:17.262Z,100.00
2023-02-18T09:46:53.303Z,100.00
2023-02-18T09:49:28.142Z,100.00
2023-02-18T09:52:02.208Z,100.00
2023-02-18T09:54:31.245Z,100.00
2023-02-18T09:57:01.002Z,100.00
2023-02-18T09:59:32.143Z,100.00
2023-02-18T10:02:03.228Z,100.00
2023-02-18T10:04:42.851Z,98.62
2023-02-18T10:07:23.094Z,97.90
2023-02-18T10:09:55.309Z,96.33
2023-02-18T10:12:27.407Z,94.09
2023-02-18T10:14:59.985Z,92.62
2023-02-18T10:17:34.195Z,93.75
2023-02-18T10:20:07.984Z,94.28
2023-02-18T10:22:39.995Z,94.32
2023-02-18T10:25:10.460Z,93.67
2023-02-18T10:27:42.135Z,92.65
2023-02-18T10:30:25.552Z,90.66
2023-02-18T10:33:02.831Z,84.44
2023-02-18T10:35:42.078Z,82.01
2023-02-18T10:38:19.830Z,79.50
2023-02-18T10:41:02.047Z,75.99
2023-02-18T10:43:43.880Z,72.91
2023-02-18T10:46:23.993Z,69.81
2023-02-18T10:49:11.840Z,70.18
2023-02-18T10:51:49.093Z,67.77
2023-02-18T10:54:18.897Z,66.80
2023-02-18T10:56:52.338Z,65.98
2023-02-18T10:59:23.585Z,64.93
2023-02-18T11:01:58.250Z,65.47
2023-02-18T11:04:37.967Z,63.84
2023-02-18T11:07:16.754Z,64.92
2023-02-18T11:09:51.329Z,63.89
2023-02-18T11:12:24.835Z,62.32
2023-02-18T11:15:17.538Z,61.45
2023-02-18T11:17:48.966Z,62.07
2023-02-18T11:20:33.948Z,61.96
2023-02-18T11:23:20.754Z,63.36
2023-02-18T11:26:05.351Z,63.35
2023-02-18T11:28:45.544Z,63.17
2023-02-18T11:31:24.126Z,64.11
2023-02-18T11:33:56.828Z,62.24
2023-02-18T11:36:30.564Z,61.32
2023-02-18T11:39:06.362Z,60.82
2023-02-18T11:41:39.863Z,59.39
2023-02-18T11:44:23.672Z,59.82
2023-02-18T11:47:03.758Z,59.58
2023-02-18T11:49:35.239Z,58.21
2023-02-18T11:52:19.397Z,57.52
2023-02-18T11:55:04.786Z,57.96
2023-02-18T11:57:38.942Z,57.09
2023-02-18T12:00:23.163Z,53.70
2023-02-18T12:02:57.699Z,52.88
2023-02-18T12:05:35.135Z,51.62
2023-02-18T12:08:11.681Z,50.19
2023-02-18T12:10:47.923Z,48.61
2023-02-18T12:13:26.953Z,50.32
2023-02-18T12:16:10.439Z,48.22
2023-02-18T12:19:15.811Z,46.99
2023-02-18T12:21:59.851Z,46.02
2023-02-18T12:24:56.098Z,46.41
2023-02-18T12:27:35.968Z,45.41
2023-02-18T12:30:39.053Z,46.74
2023-02-18T12:33:21.003Z,47.12
2023-02-18T12:36:04.184Z,47.50
2023-02-18T12:38:55.778Z,44.75
2023-02-18T12:41:58.515Z,45.41
2023-02-18T12:44:45.195Z,45.41
2023-02-18T12:47:51.502Z,43.14
2023-02-18T12:50:53.025Z,43.95
2023-02-18T12:53:50.234Z,42.63
2023-02-18T12:56:53.537Z,43.28
2023-02-18T12:59:53.603Z,43.37
2023-02-18T13:02:48.602Z,41.77
2023-02-18T13:05:32.250Z,41.29
2023-02-18T13:08:22.541Z,40.06
2023-02-18T13:11:14.394Z,39.32
2023-02-18T13:13:51.621Z,39.80
2023-02-18T13:16:22.950Z,38.37
2023-02-18T13:19:03.722Z,38.94
2023-02-18T13:21:33.131Z,39.24
2023-02-18T13:24:06.037Z,39.77
2023-02-18T13:26:36.425Z,40.26
2023-02-18T13:29:24.008Z,39.83
2023-02-18T13:32:10.984Z,38.09
2023-02-18T13:34:48.007Z,39.36
2023-02-18T13:37:26.927Z,39.48
2023-02-18T13:39:58.555Z,38.73
2023-02-18T13:42:37.047Z,39.23
2023-02-18T13:45:29.109Z,38.53
2023-02-18T13:48:01.239Z,36.66
2023-02-18T13:50:40.316Z,35.71
2023-02-18T13:53:25.616Z,36.22
2023-02-18T13:55:59.414Z,36.10
2023-02-18T13:58:37.248Z,32.87
2023-02-18T14:01:13.066Z,34.95
2023-02-18T14:03:57.877Z,35.81
2023-02-18T14:06:31.518Z,36.34
2023-02-18T14:09:36.361Z,36.16
2023-02-18T14:12:28.434Z,37.65
2023-02-18T14:15:00.721Z,36.42
2023-02-18T14:17:50.234Z,34.86
2023-02-18T14:20:51.505Z,35.62
2023-02-18T14:23:59.322Z,32.65
2023-02-18T14:26:34.913Z,31.64
2023-02-18T14:29:12.116Z,30.55
2023-02-18T14:31:59.006Z,29.21
2023-02-18T14:35:10.743Z,27.95
2023-02-18T14:38:25.462Z,27.88
2023-02-18T14:41:27.301Z,27.24
2023-02-18T14:44:20.872Z,27.05
2023-02-18T14:47:12.435Z,26.15
2023-02-18T14:49:47.162Z,27.24
2023-02-18T14:52:32.157Z,27.76
2023-02-18T14:55:06.259Z,28.00
2023-02-18T14:57:41.307Z,28.47
2023-02-18T15:00:18.783Z,29.37
2023-02-18T15:02:51.572Z,29.65
2023-02-18T15:05:24.097Z,29.75
2023-02-18T15:08:01.063Z,29.75
2023-02-18T15:10:40.736Z,31.20
2023-02-18T15:13:18.164Z,32.62
2023-02-18T15:15:52.028Z,32.95
2023-02-18T15:18:31.328Z,35.27
2023-02-18T15:21:03.364Z,38.73
2023-02-18T15:23:38.278Z,42.15
2023-02-18T15:26:14.178Z,43.71
2023-02-18T15:28:54.695Z,46.17
2023-02-18T15:31:28.223Z,47.43
2023-02-18T15:33:59.205Z,49.68
2023-02-18T15:36:28.440Z,51.44
2023-02-18T15:38:58.431Z,53.50
2023-02-18T15:41:38.220Z,55.17
2023-02-18T15:44:09.332Z,56.05
2023-02-18T15:46:38.443Z,57.03
2023-02-18T15:49:09.466Z,57.74
2023-02-18T15:51:38.596Z,58.77
2023-02-18T15:54:07.673Z,59.86
2023-02-18T15:56:45.402Z,60.74
2023-02-18T15:59:21.572Z,61.61
2023-02-18T16:01:52.679Z,63.14
2023-02-18T16:04:22.732Z,64.48
2023-02-18T16:06:54.014Z,65.59
2023-02-18T16:09:27.318Z,67.76
2023-02-18T16:12:03.425Z,69.21
2023-02-18T16:14:35.342Z,70.95
2023-02-18T16:17:17.047Z,73.17
2023-02-18T16:20:04.067Z,75.23
2023-02-18T16:22:36.803Z,78.41
2023-02-18T16:25:18.723Z,80.46
2023-02-18T16:27:55.061Z,81.04
2023-02-18T16:30:26.233Z,84.94
2023-02-18T16:32:55.366Z,83.90
2023-02-18T16:35:25.606Z,82.77
2023-02-18T16:37:57.771Z,82.66
2023-02-18T16:40:31.258Z,82.90
2023-02-18T16:43:13.180Z,81.88
2023-02-18T16:45:44.485Z,84.43
2023-02-18T16:48:20.693Z,85.01
2023-02-18T16:50:52.749Z,88.10
2023-02-18T16:53:22.148Z,88.83
2023-02-18T16:55:52.178Z,90.98
2023-02-18T16:58:24.554Z,92.61
2023-02-18T17:00:53.765Z,91.47
2023-02-18T17:03:23.117Z,91.49
2023-02-18T17:05:54.697Z,93.38
2023-02-18T17:08:28.923Z,93.70
2023-02-18T17:10:59.631Z,96.71
2023-02-18T17:13:31.656Z,100.00
2023-02-18T17:16:03.662Z,98.28
2023-02-18T17:18:33.317Z,98.94
2023-02-18T17:21:03.599Z,97.80
2023-02-18T17:23:32.539Z,100.00
2023-02-18T17:26:01.490Z,100.00
2023-02-18T17:28:31.994Z,100.00
2023-02-18T17:31:01.034Z,100.00
2023-02-18T17:33:30.026Z,100.00
2023-02-18T17:36:01.348Z,100.00
2023-02-18T17:38:30.339Z,100.00
2023-02-18T17:40:59.260Z,100.00
2023-02-18T17:43:28.277Z,100.00
2023-02-18T17:46:00.405Z,100.00
2023-02-18T17:48:29.828Z,100.00
2023-02-18T17:50:59.412Z,100.00
2023-02-18T17:53:29.631Z,100.00
2023-02-18T17:55:58.540Z,100.00
2023-02-18T17:58:27.719Z,100.00
2023-02-18T18:00:59.385Z,100.00
2023-02-18T18:03:28.516Z,100.00
2023-02-18T18:05:57.715Z,100.00
2023-02-18T18:08:26.691Z,100.00
2023-02-18T18:10:58.782Z,100.00
2023-02-18T18:13:34.669Z,100.00
2023-02-18T18:16:05.969Z,100.00
2023-02-18T18:18:36.941Z,100.00
2023-02-18T18:21:06.968Z,100.00
2023-02-18T18:23:36.099Z,100.00
2023-02-18T18:26:05.451Z,100.00
2023-02-18T18:28:36.128Z,100.00
2023-02-18T18:31:08.097Z,100.00
2023-02-18T18:33:37.350Z,100.00
2023-02-18T18:36:10.314Z,100.00
2023-02-18T18:38:40.398Z,100.00
2023-02-18T18:41:15.330Z,100.00
2023-02-18T18:43:44.321Z,100.00
2023-02-18T18:46:14.959Z,100.00
2023-02-18T18:48:43.986Z,100.00
2023-02-18T18:51:17.161Z,100.00
2023-02-18T18:53:46.259Z,100.00
2023-02-18T18:56:15.413Z,100.00
2023-02-18T18:58:44.532Z,100.00
2023-02-18T19:01:18.886Z,100.00
2023-02-18T19:03:48.538Z,100.00
2023-02-18T19:06:18.360Z,100.00
2023-02-18T19:08:47.944Z,100.00
2023-02-18T19:11:18.337Z,100.00
2023-02-18T19:13:47.437Z,100.00
2023-02-18T19:16:22.333Z,100.00
2023-02-18T19:18:51.720Z,100.00
2023-02-18T19:21:21.043Z,100.00
2023-02-18T19:23:50.443Z,100.00
2023-02-18T19:26:20.587Z,100.00
2023-02-18T19:28:49.668Z,100.00
2023-02-18T19:31:24.011Z,100.00
2023-02-18T19:33:54.352Z,100.00
2023-02-18T19:36:23.467Z,100.00
2023-02-18T19:38:52.778Z,100.00
2023-02-18T19:41:21.771Z,100.00
2023-02-18T19:43:50.769Z,100.00
2023-02-18T19:46:21.249Z,100.00
2023-02-18T19:48:52.620Z,100.00
2023-02-18T19:51:23.170Z,100.00
2023-02-18T19:53:52.825Z,100.00
2023-02-18T19:56:21.788Z,100.00
2023-02-18T19:58:50.772Z,100.00
2023-02-18T20:01:28.709Z,100.00
2023-02-18T20:03:57.674Z,100.00
2023-02-18T20:06:26.631Z,100.00
2023-02-18T20:08:55.584Z,100.00
2023-02-18T20:11:24.706Z,100.00
2023-02-18T20:13:53.796Z,100.00
2023-02-18T20:16:24.153Z,100.00
2023-02-18T20:18:54.034Z,100.00
2023-02-18T20:21:26.300Z,100.00
2023-02-18T20:23:56.069Z,100.00
2023-02-18T20:26:25.612Z,100.00
2023-02-18T20:28:54.509Z,100.00
2023-02-18T20:31:24.964Z,100.00
2023-02-18T20:33:57.259Z,100.00
2023-02-18T20:36:27.855Z,100.00
2023-02-18T20:39:02.452Z,100.00
2023-02-18T20:41:37.114Z,100.00
2023-02-18T20:44:06.694Z,100.00
2023-02-18T20:46:38.135Z,100.00
2023-02-18T20:49:09.058Z,100.00
2023-02-18T20:51:38.590Z,100.00
2023-02-18T20:54:10.230Z,100.00
2023-02-18T20:56:40.746Z,100.00
2023-02-18T20:59:12.686Z,100.00
2023-02-18T21:01:43.868Z,100.00
2023-02-18T21:04:13.818Z,100.00
2023-02-18T21:06:45.404Z,100.00
2023-02-18T21:09:15.661Z,100.00
2023-02-18T21:11:45.597Z,100.00
2023-02-18T21:14:14.610Z,100.00
2023-02-18T21:30:20.968Z,100.00
2023-02-18T21:32:50.030Z,100.00
2023-02-18T21:35:19.185Z,100.00
2023-02-18T21:37:48.204Z,100.00
2023-02-18T21:40:17.497Z,100.00
2023-02-18T21:42:47.440Z,100.00
2023-02-18T21:45:20.333Z,100.00
2023-02-18T21:47:50.924Z,100.00
2023-02-18T21:50:20.140Z,100.00
2023-02-18T21:52:49.063Z,100.00
2023-02-18T21:55:18.294Z,100.00
2023-02-18T21:57:47.220Z,100.00
2023-02-18T22:00:21.047Z,100.00
2023-02-18T22:02:51.777Z,100.00
2023-02-18T22:05:21.459Z,100.00
2023-02-18T22:07:50.520Z,100.00
2023-02-18T22:10:20.084Z,100.00
2023-02-18T22:12:49.359Z,100.00
2023-02-18T22:15:18.663Z,100.00
2023-02-18T22:17:47.953Z,100.00
2023-02-18T22:20:19.575Z,100.00
2023-02-18T22:22:48.546Z,100.00
2023-02-18T22:25:17.579Z,100.00
2023-02-18T22:27:46.682Z,100.00
2023-02-18T22:30:18.835Z,100.00
2023-02-18T22:32:47.906Z,100.00
2023-02-18T22:35:18.600Z,100.00
2023-02-18T22:37:47.574Z,100.00
2023-02-18T22:40:16.712Z,100.00
2023-02-18T22:42:45.755Z,100.00
2023-02-18T22:45:14.686Z,100.00
2023-02-18T22:47:43.834Z,100.00
2023-02-18T22:50:12.806Z,100.00
2023-02-18T22:52:43.638Z,100.00
2023-02-18T22:55:12.680Z,100.00
2023-02-18T22:57:42.130Z,100.00
2023-02-18T23:00:13.458Z,100.00
2023-02-18T23:02:42.611Z,100.00
2023-02-18T23:05:11.569Z,100.00
2023-02-18T23:07:41.977Z,100.00
2023-02-18T23:10:11.013Z,100.00
2023-02-18T23:12:40.010Z,100.00
2023-02-18T23:15:11.034Z,100.00
2023-02-18T23:17:41.465Z,100.00
2023-02-18T23:20:11.407Z,100.00
2023-02-18T23:22:41.975Z,100.00
2023-02-18T23:25:12.581Z,100.00
2023-02-18T23:27:41.558Z,100.00
2023-02-18T23:30:12.819Z,100.00
2023-02-18T23:32:41.796Z,100.00
2023-02-18T23:35:10.732Z,100.00
2023-02-18T23:37:57.228Z,100.00
2023-02-18T23:40:27.613Z,100.00
2023-02-18T23:42:57.246Z,100.00
2023-02-18T23:45:26.428Z,100.00
2023-02-18T23:47:55.367Z,100.00
2023-02-18T23:50:24.645Z,100.00
2023-02-18T23:52:54.200Z,100.00
2023-02-18T23:55:23.244Z,100.00
2023-02-18T23:57:53.529Z,100.00
